createdAt,value
2022-10-23T00:00:42.844Z,98258.28
2022-10-23T00:03:15.815Z,98256.88
2022-10-23T00:05:46.119Z,98261.84
2022-10-23T00:08:16.385Z,98251.31
2022-10-23T00:10:46.970Z,98256.19
2022-10-23T00:13:22.730Z,98263.25
2022-10-23T00:15:58.719Z,98261.78
2022-10-23T00:18:35.078Z,98261.06
2022-10-23T00:21:09.838Z,98248.59
2022-10-23T00:23:37.596Z,98256.44
2022-10-23T00:26:11.531Z,98259.97
2022-10-23T00:28:40.144Z,98249.28
2022-10-23T00:31:12.738Z,98257.81
2022-10-23T00:36:31.307Z,98251.47
2022-10-23T00:38:59.784Z,98267.69
2022-10-23T00:41:35.288Z,98261.13
2022-10-23T00:44:31.617Z,98275.91
2022-10-23T00:47:18.757Z,98274.00
2022-10-23T00:49:49.498Z,98266.47
2022-10-23T00:52:24.408Z,98263.94
2022-10-23T00:54:56.598Z,98268.88
2022-10-23T00:57:26.515Z,98252.25
2022-10-23T00:59:56.965Z,98248.56
2022-10-23T01:02:34.290Z,98258.75
2022-10-23T01:05:01.864Z,98257.09
2022-10-23T01:08:11.740Z,98263.94
2022-10-23T01:11:17.842Z,98256.59
2022-10-23T01:13:49.554Z,98258.28
2022-10-23T01:16:41.582Z,98268.63
2022-10-23T01:20:04.108Z,98262.88
2022-10-23T01:23:08.583Z,98260.31
2022-10-23T01:25:38.809Z,98256.09
2022-10-23T01:28:16.621Z,98250.84
2022-10-23T01:30:51.282Z,98250.41
2022-10-23T01:33:33.635Z,98238.59
2022-10-23T01:36:13.640Z,98239.94
2022-10-23T01:39:19.914Z,98243.19
2022-10-23T01:42:01.906Z,98250.63
2022-10-23T01:45:11.604Z,98240.50
2022-10-23T01:47:49.394Z,98242.34
2022-10-23T01:50:26.633Z,98243.66
2022-10-23T01:52:58.793Z,98239.28
2022-10-23T01:55:32.540Z,98235.53
2022-10-23T01:58:16.420Z,98229.47
2022-10-23T02:00:52.103Z,98226.75
2022-10-23T02:03:29.490Z,98221.78
2022-10-23T02:05:57.046Z,98227.38
2022-10-23T02:08:30.822Z,98231.22
2022-10-23T02:11:15.691Z,98223.63
2022-10-23T02:16:55.984Z,98225.28
2022-10-23T02:19:52.498Z,98219.34
2022-10-23T02:22:45.535Z,98215.00
2022-10-23T02:25:25.962Z,98205.06
2022-10-23T02:28:05.908Z,98216.44
2022-10-23T02:30:41.844Z,98215.13
2022-10-23T02:33:15.271Z,98220.00
2022-10-23T02:35:51.347Z,98211.47
2022-10-23T02:38:44.213Z,98218.88
2022-10-23T02:41:37.027Z,98213.16
2022-10-23T02:44:27.603Z,98214.06
2022-10-23T02:47:18.800Z,98224.72
2022-10-23T02:50:09.591Z,98213.44
2022-10-23T02:53:02.990Z,98215.06
2022-10-23T02:56:26.521Z,98218.88
2022-10-23T02:59:40.662Z,98218.16
2022-10-23T03:02:57.246Z,98215.78
2022-10-23T03:05:43.539Z,98211.69
2022-10-23T03:08:17.205Z,98210.91
2022-10-23T03:10:44.969Z,98207.03
2022-10-23T03:13:15.475Z,98213.66
2022-10-23T03:15:57.525Z,98211.69
2022-10-23T03:18:25.823Z,98212.78
2022-10-23T03:21:03.893Z,98218.19
2022-10-23T03:23:45.070Z,98217.88
2022-10-23T03:26:16.328Z,98225.44
2022-10-23T03:29:09.984Z,98223.53
2022-10-23T03:31:41.662Z,98230.19
2022-10-23T03:34:16.216Z,98218.16
2022-10-23T03:36:43.967Z,98216.47
2022-10-23T03:39:16.342Z,98223.91
2022-10-23T03:41:44.980Z,98224.00
2022-10-23T03:44:13.937Z,98228.47
2022-10-23T03:46:41.477Z,98217.06
2022-10-23T03:49:13.033Z,98220.91
2022-10-23T03:51:52.313Z,98224.31
2022-10-23T03:54:32.621Z,98243.94
2022-10-23T03:57:03.203Z,98234.41
2022-10-23T03:59:33.924Z,98226.22
2022-10-23T04:02:03.854Z,98223.63
2022-10-23T04:04:36.187Z,98214.31
2022-10-23T04:07:20.982Z,98217.59
2022-10-23T04:09:56.696Z,98222.72
2022-10-23T04:12:30.000Z,98223.66
2022-10-23T04:15:05.798Z,98223.13
2022-10-23T04:17:38.481Z,98225.63
2022-10-23T04:20:07.452Z,98219.59
2022-10-23T04:22:35.961Z,98220.25
2022-10-23T04:25:05.794Z,98228.22
2022-10-23T04:27:39.420Z,98233.72
2022-10-23T04:30:12.212Z,98231.66
2022-10-23T04:32:49.817Z,98242.25
2022-10-23T04:35:20.863Z,98227.78
2022-10-23T04:37:53.700Z,98226.06
2022-10-23T04:40:31.531Z,98231.72
2022-10-23T04:43:04.203Z,98229.78
2022-10-23T04:45:31.875Z,98235.28
2022-10-23T04:48:08.668Z,98234.84
2022-10-23T04:50:41.586Z,98232.47
2022-10-23T04:53:14.738Z,98240.44
2022-10-23T04:55:52.843Z,98231.88
2022-10-23T04:58:47.277Z,98230.44
2022-10-23T05:01:18.090Z,98228.97
2022-10-23T05:03:56.878Z,98223.28
2022-10-23T05:06:27.006Z,98226.66
2022-10-23T05:08:55.380Z,98222.69
2022-10-23T05:11:30.125Z,98216.47
2022-10-23T05:14:06.992Z,98214.78
2022-10-23T05:16:50.165Z,98227.19
2022-10-23T05:19:28.155Z,98223.31
2022-10-23T05:21:57.845Z,98223.75
2022-10-23T05:24:29.775Z,98226.34
2022-10-23T05:27:07.899Z,98231.03
2022-10-23T05:29:46.448Z,98224.97
2022-10-23T05:32:16.946Z,98227.31
2022-10-23T05:34:45.094Z,98219.41
2022-10-23T05:37:19.640Z,98216.72
2022-10-23T05:39:58.644Z,98220.91
2022-10-23T05:42:32.441Z,98231.88
2022-10-23T05:45:14.461Z,98216.78
2022-10-23T05:47:54.971Z,98228.09
2022-10-23T05:50:29.094Z,98234.59
2022-10-23T05:52:58.078Z,98229.19
2022-10-23T05:55:27.065Z,98232.66
2022-10-23T05:58:04.478Z,98228.13
2022-10-23T06:00:41.461Z,98244.78
2022-10-23T06:03:26.464Z,98241.16
2022-10-23T06:06:00.578Z,98231.34
2022-10-23T06:11:27.292Z,98238.38
2022-10-23T06:16:35.692Z,98244.59
2022-10-23T06:19:17.388Z,98245.53
2022-10-23T06:21:52.858Z,98256.84
2022-10-23T06:24:21.113Z,98266.19
2022-10-23T06:26:50.493Z,98268.25
2022-10-23T06:29:17.615Z,98279.03
2022-10-23T06:31:44.751Z,98284.59
2022-10-23T06:34:12.991Z,98281.53
2022-10-23T06:36:46.410Z,98286.13
2022-10-23T06:39:13.607Z,98286.22
2022-10-23T06:41:42.147Z,98283.22
2022-10-23T06:44:10.426Z,98280.38
2022-10-23T06:46:38.128Z,98288.88
2022-10-23T06:49:06.309Z,98287.44
2022-10-23T06:51:35.221Z,98287.22
2022-10-23T06:54:02.791Z,98275.88
2022-10-23T06:56:30.472Z,98278.28
2022-10-23T06:58:57.974Z,98286.19
2022-10-23T07:01:27.130Z,98280.53
2022-10-23T07:03:54.454Z,98289.09
2022-10-23T07:06:23.959Z,98283.13
2022-10-23T07:08:53.495Z,98279.59
2022-10-23T07:11:23.439Z,98277.25
2022-10-23T07:13:50.558Z,98277.91
2022-10-23T07:16:22.076Z,98276.78
2022-10-23T07:19:03.721Z,98278.88
2022-10-23T07:21:35.663Z,98284.84
2022-10-23T07:24:03.773Z,98290.06
2022-10-23T07:26:32.979Z,98295.75
2022-10-23T07:29:00.281Z,98298.94
2022-10-23T07:31:28.493Z,98297.94
2022-10-23T07:33:58.984Z,98300.97
2022-10-23T07:36:26.250Z,98319.59
2022-10-23T07:38:56.344Z,98306.69
2022-10-23T07:41:26.622Z,98307.28
2022-10-23T07:43:54.266Z,98293.84
2022-10-23T07:46:27.091Z,98293.72
2022-10-23T07:48:54.240Z,98310.38
2022-10-23T07:51:21.333Z,98318.06
2022-10-23T07:53:48.551Z,98311.72
2022-10-23T07:56:24.771Z,98332.06
2022-10-23T07:58:56.665Z,98322.81
2022-10-23T08:01:50.548Z,98322.59
2022-10-23T08:04:35.772Z,98323.59
2022-10-23T08:07:09.125Z,98341.63
2022-10-23T08:09:38.187Z,98355.63
2022-10-23T08:12:07.373Z,98355.91
2022-10-23T08:14:34.531Z,98374.66
2022-10-23T08:19:36.279Z,98356.31
2022-10-23T08:22:04.272Z,98368.16
2022-10-23T08:24:31.669Z,98370.38
2022-10-23T08:26:59.586Z,98380.19
2022-10-23T08:29:59.821Z,98371.75
2022-10-23T08:32:33.409Z,98374.66
2022-10-23T08:35:01.190Z,98378.41
2022-10-23T08:37:28.388Z,98377.28
2022-10-23T08:39:56.191Z,98387.09
2022-10-23T08:42:27.053Z,98377.19
2022-10-23T08:45:22.846Z,98370.66
2022-10-23T08:47:56.123Z,98376.97
2022-10-23T08:50:52.496Z,98385.53
2022-10-23T08:53:27.164Z,98378.19
2022-10-23T08:56:34.882Z,98377.81
2022-10-23T08:59:22.761Z,98371.91
2022-10-23T09:02:07.810Z,98379.34
2022-10-23T09:04:43.584Z,98394.88
2022-10-23T09:07:36.801Z,98394.03
2022-10-23T09:10:59.285Z,98391.19
2022-10-23T09:14:03.888Z,98388.56
2022-10-23T09:16:49.486Z,98398.91
2022-10-23T09:19:27.199Z,98394.72
2022-10-23T09:21:58.056Z,98395.78
2022-10-23T09:24:31.721Z,98380.69
2022-10-23T09:27:00.829Z,98391.47
2022-10-23T09:29:41.245Z,98402.66
2022-10-23T09:32:08.371Z,98398.91
2022-10-23T09:34:36.080Z,98399.06
2022-10-23T09:37:25.088Z,98400.28
2022-10-23T09:40:20.278Z,98409.16
2022-10-23T09:42:58.814Z,98409.09
2022-10-23T09:45:35.865Z,98396.63
2022-10-23T09:48:18.804Z,98379.91
2022-10-23T09:51:04.725Z,98394.72
2022-10-23T09:53:38.507Z,98396.16
2022-10-23T09:56:24.901Z,98389.88
2022-10-23T09:59:02.380Z,98398.91
2022-10-23T10:01:46.306Z,98395.34
2022-10-23T10:04:14.247Z,98391.63
2022-10-23T10:06:42.823Z,98385.59
2022-10-23T10:09:17.261Z,98381.97
2022-10-23T10:12:02.120Z,98392.50
2022-10-23T10:14:50.882Z,98409.69
2022-10-23T10:18:00.620Z,98400.66
2022-10-23T10:20:46.443Z,98399.84
2022-10-23T10:23:55.973Z,98401.63
2022-10-23T10:26:52.561Z,98389.25
2022-10-23T10:29:34.011Z,98388.53
2022-10-23T10:32:21.329Z,98381.84
2022-10-23T10:35:25.619Z,98393.59
2022-10-23T10:38:22.309Z,98378.88
2022-10-23T10:41:18.447Z,98377.28
2022-10-23T10:44:38.255Z,98368.06
2022-10-23T10:47:31.586Z,98375.00
2022-10-23T10:50:08.089Z,98351.91
2022-10-23T10:53:09.255Z,98350.25
2022-10-23T10:55:42.656Z,98338.00
2022-10-23T10:58:42.509Z,98348.13
2022-10-23T11:01:35.281Z,98352.06
2022-10-23T11:04:25.710Z,98337.78
2022-10-23T11:06:58.428Z,98331.41
2022-10-23T11:09:31.476Z,98333.69
2022-10-23T11:11:58.614Z,98327.69
2022-10-23T11:17:35.443Z,98322.97
2022-10-23T11:20:48.862Z,98299.34
2022-10-23T11:24:00.402Z,98294.63
2022-10-23T11:27:20.144Z,98303.78
2022-10-23T11:29:52.745Z,98305.09
2022-10-23T11:32:50.744Z,98317.09
2022-10-23T11:36:00.734Z,98295.69
2022-10-23T11:38:33.359Z,98283.81
2022-10-23T11:41:19.943Z,98279.03
2022-10-23T11:43:57.548Z,98274.13
2022-10-23T11:46:39.704Z,98290.94
2022-10-23T11:49:22.299Z,98275.94
2022-10-23T11:52:06.620Z,98267.63
2022-10-23T11:54:33.764Z,98267.47
2022-10-23T11:57:17.334Z,98275.97
2022-10-23T11:59:58.455Z,98263.84
2022-10-23T12:02:44.035Z,98252.69
2022-10-23T12:05:35.594Z,98260.63
2022-10-23T12:08:10.139Z,98253.94
2022-10-23T12:10:47.270Z,98229.03
2022-10-23T12:13:46.450Z,98217.75
2022-10-23T12:16:16.915Z,98233.88
2022-10-23T12:18:54.784Z,98235.34
2022-10-23T12:21:28.388Z,98234.66
2022-10-23T12:24:49.431Z,98247.00
2022-10-23T12:27:31.412Z,98231.38
2022-10-23T12:30:23.005Z,98242.53
2022-10-23T12:33:05.789Z,98230.44
2022-10-23T12:36:11.480Z,98232.56
2022-10-23T12:38:54.837Z,98234.44
2022-10-23T12:41:31.776Z,98209.31
2022-10-23T12:44:08.366Z,98212.03
2022-10-23T12:46:53.575Z,98203.41
2022-10-23T12:49:25.346Z,98196.69
2022-10-23T12:52:21.269Z,98190.50
2022-10-23T12:54:51.039Z,98206.16
2022-10-23T12:57:29.019Z,98204.59
2022-10-23T13:00:24.308Z,98198.09
2022-10-23T13:03:03.126Z,98215.66
2022-10-23T13:05:33.564Z,98186.22
2022-10-23T13:08:02.873Z,98201.22
2022-10-23T13:10:32.357Z,98197.91
2022-10-23T13:13:08.015Z,98181.53
2022-10-23T13:15:48.798Z,98186.88
2022-10-23T13:18:19.834Z,98184.97
2022-10-23T13:20:53.341Z,98187.63
2022-10-23T13:23:56.302Z,98175.03
2022-10-23T13:26:32.426Z,98175.50
2022-10-23T13:29:09.527Z,98162.94
2022-10-23T13:32:02.690Z,98174.31
2022-10-23T13:34:35.971Z,98186.41
2022-10-23T13:37:27.493Z,98161.47
2022-10-23T13:40:28.082Z,98168.47
2022-10-23T13:42:59.064Z,98173.84
2022-10-23T13:45:27.540Z,98173.06
2022-10-23T13:48:01.549Z,98187.97
2022-10-23T13:50:28.643Z,98181.63
2022-10-23T13:52:56.120Z,98176.44
2022-10-23T13:55:26.786Z,98171.72
2022-10-23T13:57:54.141Z,98157.59
2022-10-23T14:00:22.959Z,98160.03
2022-10-23T14:05:23.011Z,98174.66
2022-10-23T14:07:52.687Z,98161.88
2022-10-23T14:10:27.033Z,98166.91
2022-10-23T14:12:55.480Z,98157.44
2022-10-23T14:15:23.048Z,98144.00
2022-10-23T14:17:50.185Z,98145.81
2022-10-23T14:20:27.886Z,98161.28
2022-10-23T14:22:55.180Z,98160.31
2022-10-23T14:25:27.921Z,98175.91
2022-10-23T14:28:00.965Z,98167.16
2022-10-23T14:30:27.993Z,98167.44
2022-10-23T14:33:00.801Z,98166.38
2022-10-23T14:35:27.887Z,98160.03
2022-10-23T14:38:02.256Z,98168.59
2022-10-23T14:40:29.305Z,98163.75
2022-10-23T14:42:59.281Z,98163.00
2022-10-23T14:45:29.905Z,98151.91
2022-10-23T14:47:57.506Z,98157.88
2022-10-23T14:50:24.670Z,98160.00
2022-10-23T14:52:51.862Z,98168.09
2022-10-23T14:55:19.626Z,98143.59
2022-10-23T14:57:47.753Z,98147.50
2022-10-23T15:00:16.099Z,98150.88
2022-10-23T15:02:43.611Z,98134.59
2022-10-23T15:05:11.933Z,98157.72
2022-10-23T15:07:41.684Z,98164.41
2022-10-23T15:10:09.944Z,98144.69
2022-10-23T15:12:39.305Z,98159.72
2022-10-23T15:15:08.748Z,98166.22
2022-10-23T15:17:45.166Z,98177.03
2022-10-23T15:20:12.580Z,98179.09
2022-10-23T15:22:39.759Z,98176.97
2022-10-23T15:25:17.653Z,98184.25
2022-10-23T15:27:45.605Z,98184.03
2022-10-23T15:30:14.579Z,98178.28
2022-10-23T15:32:47.516Z,98177.13
2022-10-23T15:35:14.877Z,98192.09
2022-10-23T15:37:42.169Z,98195.75
2022-10-23T15:40:13.233Z,98185.78
2022-10-23T15:42:40.516Z,98186.41
2022-10-23T15:45:08.509Z,98192.50
2022-10-23T15:47:35.642Z,98196.44
2022-10-23T15:50:02.730Z,98180.47
2022-10-23T15:52:32.356Z,98199.78
2022-10-23T15:55:00.007Z,98189.06
2022-10-23T15:57:28.186Z,98183.84
2022-10-23T15:59:56.281Z,98180.47
2022-10-23T16:02:23.851Z,98195.50
2022-10-23T16:04:51.049Z,98193.69
2022-10-23T16:07:19.573Z,98182.19
2022-10-23T16:09:46.705Z,98184.66
2022-10-23T16:12:16.104Z,98192.09
2022-10-23T16:14:45.983Z,98199.34
2022-10-23T16:19:46.759Z,98206.59
2022-10-23T16:22:17.670Z,98198.97
2022-10-23T16:24:49.442Z,98206.81
2022-10-23T16:27:17.353Z,98200.09
2022-10-23T16:29:44.584Z,98202.06
2022-10-23T16:32:12.125Z,98203.06
2022-10-23T16:34:41.180Z,98196.06
2022-10-23T16:37:08.530Z,98185.75
2022-10-23T16:39:36.316Z,98183.03
2022-10-23T16:42:06.359Z,98187.53
2022-10-23T16:44:38.838Z,98189.13
2022-10-23T16:47:09.370Z,98188.28
2022-10-23T16:49:37.614Z,98196.16
2022-10-23T16:52:09.568Z,98199.47
2022-10-23T16:54:38.301Z,98196.19
2022-10-23T16:57:10.574Z,98194.75
2022-10-23T16:59:43.172Z,98213.91
2022-10-23T17:02:14.225Z,98218.88
2022-10-23T17:04:41.627Z,98224.06
2022-10-23T17:07:13.229Z,98229.75
2022-10-23T17:09:47.748Z,98235.81
2022-10-23T17:12:16.956Z,98229.94
2022-10-23T17:14:44.347Z,98234.03
2022-10-23T17:17:12.499Z,98238.44
2022-10-23T17:19:46.754Z,98245.16
2022-10-23T17:22:15.491Z,98243.50
2022-10-23T17:24:51.616Z,98246.03
2022-10-23T17:27:23.260Z,98248.91
2022-10-23T17:29:51.105Z,98244.22
2022-10-23T17:34:53.858Z,98251.16
2022-10-23T17:37:26.193Z,98245.00
2022-10-23T17:40:00.900Z,98238.53
2022-10-23T17:42:29.683Z,98230.91
2022-10-23T17:44:58.529Z,98232.53
2022-10-23T17:47:27.069Z,98235.28
2022-10-23T17:49:54.348Z,98239.97
2022-10-23T17:52:21.620Z,98241.16
2022-10-23T17:54:59.542Z,98242.94
2022-10-23T17:57:26.741Z,98239.19
2022-10-23T17:59:56.928Z,98250.44
2022-10-23T18:02:24.593Z,98254.69
2022-10-23T18:04:54.074Z,98261.00
2022-10-23T18:07:26.994Z,98256.94
2022-10-23T18:09:56.673Z,98261.38
2022-10-23T18:15:19.340Z,98259.09
2022-10-23T18:18:05.267Z,98249.63
2022-10-23T18:20:41.069Z,98259.03
2022-10-23T18:23:09.994Z,98268.25
2022-10-23T18:25:50.930Z,98260.50
2022-10-23T18:28:18.566Z,98263.00
2022-10-23T18:30:52.243Z,98261.22
2022-10-23T18:33:24.473Z,98248.84
2022-10-23T18:35:53.151Z,98243.84
2022-10-23T18:38:30.018Z,98239.53
2022-10-23T18:41:08.851Z,98253.06
2022-10-23T18:43:43.856Z,98252.91
2022-10-23T18:46:15.184Z,98243.09
2022-10-23T18:48:50.448Z,98247.44
2022-10-23T18:51:33.294Z,98232.53
2022-10-23T18:54:06.089Z,98238.13
2022-10-23T18:56:36.384Z,98237.06
2022-10-23T18:59:12.234Z,98232.59
2022-10-23T19:01:41.985Z,98237.09
2022-10-23T19:04:16.017Z,98237.97
2022-10-23T19:06:47.403Z,98229.97
2022-10-23T19:09:16.362Z,98234.53
2022-10-23T19:11:47.860Z,98232.06
2022-10-23T19:14:21.307Z,98226.66
2022-10-23T19:17:16.551Z,98219.56
2022-10-23T19:19:59.773Z,98227.69
2022-10-23T19:22:34.727Z,98230.47
2022-10-23T19:25:17.569Z,98237.66
2022-10-23T19:27:48.059Z,98236.63
2022-10-23T19:30:21.902Z,98243.03
2022-10-23T19:32:57.455Z,98232.84
2022-10-23T19:35:25.086Z,98233.06
2022-10-23T19:37:56.434Z,98235.88
2022-10-23T19:43:10.151Z,98246.84
2022-10-23T19:45:40.911Z,98237.38
2022-10-23T19:48:11.812Z,98240.78
2022-10-23T19:50:48.284Z,98254.16
2022-10-23T19:53:22.149Z,98246.53
2022-10-23T19:55:54.801Z,98256.28
2022-10-23T19:58:25.666Z,98252.91
2022-10-23T20:00:53.415Z,98247.06
2022-10-23T20:03:28.090Z,98237.47
2022-10-23T20:05:57.148Z,98219.63
2022-10-23T20:08:32.606Z,98212.81
2022-10-23T20:11:03.739Z,98205.53
2022-10-23T20:13:32.725Z,98214.75
2022-10-23T20:18:52.469Z,98211.88
2022-10-23T20:21:21.929Z,98212.56
2022-10-23T20:23:50.977Z,98216.63
2022-10-23T20:26:22.092Z,98213.25
2022-10-23T20:28:55.630Z,98219.03
2022-10-23T20:31:30.096Z,98219.16
2022-10-23T20:34:01.023Z,98221.09
2022-10-23T20:36:46.765Z,98218.84
2022-10-23T20:39:21.937Z,98219.25
2022-10-23T20:41:56.033Z,98219.75
2022-10-23T20:44:30.582Z,98223.53
2022-10-23T20:47:00.545Z,98214.56
2022-10-23T20:49:34.089Z,98217.09
2022-10-23T20:52:01.469Z,98210.88
2022-10-23T20:54:29.580Z,98203.09
2022-10-23T20:57:00.758Z,98200.94
2022-10-23T20:59:28.644Z,98204.66
2022-10-23T21:02:06.517Z,98195.06
2022-10-23T21:04:41.780Z,98203.59
2022-10-23T21:07:11.885Z,98204.00
2022-10-23T21:09:40.412Z,98208.94
2022-10-23T21:12:08.991Z,98216.41
2022-10-23T21:14:38.791Z,98219.13
2022-10-23T21:17:06.805Z,98223.59
2022-10-23T21:19:37.365Z,98219.72
2022-10-23T21:22:04.841Z,98233.94
2022-10-23T21:24:36.050Z,98236.13
2022-10-23T21:27:07.282Z,98236.81
2022-10-23T21:29:35.315Z,98235.16
2022-10-23T21:32:02.804Z,98238.59
2022-10-23T21:34:31.121Z,98230.59
2022-10-23T21:37:14.620Z,98234.44
2022-10-23T21:39:47.090Z,98235.56
2022-10-23T21:42:35.991Z,98231.41
2022-10-23T21:45:04.206Z,98229.78
2022-10-23T21:47:33.631Z,98231.97
2022-10-23T21:50:06.058Z,98236.28
2022-10-23T21:52:38.494Z,98239.38
2022-10-23T21:55:06.469Z,98238.59
2022-10-23T21:57:39.039Z,98239.56
2022-10-23T22:00:10.294Z,98246.38
2022-10-23T22:02:44.313Z,98241.69
2022-10-23T22:05:14.759Z,98249.75
2022-10-23T22:07:49.419Z,98245.19
2022-10-23T22:10:17.050Z,98248.09
2022-10-23T22:12:44.728Z,98249.69
2022-10-23T22:15:11.715Z,98252.91
2022-10-23T22:17:44.719Z,98252.53
2022-10-23T22:20:13.599Z,98253.84
2022-10-23T22:22:45.431Z,98249.66
2022-10-23T22:25:12.592Z,98249.41
2022-10-23T22:27:44.145Z,98248.38
2022-10-23T22:30:12.397Z,98248.94
2022-10-23T22:32:39.484Z,98249.88
2022-10-23T22:35:06.791Z,98250.56
2022-10-23T22:37:34.413Z,98250.06
2022-10-23T22:40:03.427Z,98246.94
2022-10-23T22:42:38.931Z,98236.84
2022-10-23T22:45:07.971Z,98239.84
2022-10-23T22:47:39.461Z,98238.03
2022-10-23T22:50:10.219Z,98235.00
2022-10-23T22:52:41.795Z,98246.84
2022-10-23T22:55:12.910Z,98241.53
2022-10-23T22:57:41.753Z,98241.34
2022-10-23T23:00:13.020Z,98241.06
2022-10-23T23:02:46.970Z,98240.97
2022-10-23T23:05:15.450Z,98237.34
2022-10-23T23:07:45.852Z,98235.53
2022-10-23T23:10:14.485Z,98243.84
2022-10-23T23:12:42.553Z,98240.53
2022-10-23T23:15:12.352Z,98236.38
2022-10-23T23:17:42.833Z,98242.13
2022-10-23T23:20:16.547Z,98240.53
2022-10-23T23:22:47.539Z,98238.13
2022-10-23T23:25:16.005Z,98233.03
2022-10-23T23:27:45.178Z,98230.34
2022-10-23T23:30:12.643Z,98233.31
2022-10-23T23:32:39.720Z,98227.47
2022-10-23T23:35:11.504Z,98212.41
2022-10-23T23:37:39.959Z,98216.53
2022-10-23T23:40:12.259Z,98221.47
2022-10-23T23:42:39.495Z,98220.13
2022-10-23T23:45:14.824Z,98213.66
2022-10-23T23:47:44.946Z,98222.31
2022-10-23T23:50:17.217Z,98228.03
2022-10-23T23:52:45.375Z,98221.22
2022-10-23T23:55:13.814Z,98229.59
2022-10-23T23:57:43.559Z,98223.66
